Aérodrome :
LOGIN :

S'inscrire | Disclaimer

   EN    FR    IT 

 










Légende :    VFR   VFR Marginal   IFR   IFR Intensif   IFR Très Intensif
Visi : 
Plafond : 
>= 8 km
>= 3000ft
5 à 8 km
1000 à 3000 ft
1500m à 5 km
500 à 1000 ft
800 à 1500m
200 à 500 ft
< 800m
< 200 ft
Symboles :   Orages  Brouillard  Fortes neiges  Fortes précipitations  Vent > 20 kt
SIGMETs :   Divers  Orages  Givrage  Turbulence  Onde Orograph.  Cendres Volcan.






- Altitude de l'aérodrome : 989 ft
- Code IATA : TRN


LIMF - Torino Caselle

DERNIER METAR :
  • 271320Z 04004KT 340V110 CAVOK 22/08 Q1028

METARs EXPIRÉS :
  • 271250Z 09004KT 350V160 CAVOK 23/10 Q1028
  • 271220Z VRB03KT CAVOK 22/08 Q1029
  • 271150Z 10006KT 040V170 CAVOK 22/08 Q1029
  • 271120Z 12005KT 060V180 CAVOK 22/08 Q1029
  • 271050Z VRB05KT CAVOK 21/08 Q1029

TAF TAF LIMF
Valide du 27 à 12h jusqu'au 28 à 12h UTC


271100Z 2712/2812 VRB05KT 9999 SCT050



MET'MAP, la Météo Aéronautique d'un coup d'oeil ! - Copyright ORBIFLY Décembre 2007 - Disclaimer

ORBIFLY MET'MAP TEAM :

Programmation & Développement : Alexandra Zaïnal
Sur une idée originale de : Baudouin d'Aumeries
Assistance à la programmation : Marc-Olivier Méhu
Soutien technique & logistique : Manuel Goepfert

Contact : metmap@orbifly.com




SOURCES & CREDITS :

   NOAA